Time;durP1;ratioP1;P1;durP2;ratioP2;P2;SDS_P1;SDS_P2;PMS_P1;PMS_P2;Temp;Humidity;BMP_temperature;BMP_pressure;BME280_temperature;BME280_humidity;BME280_pressure;Samples;Min_cycle;Max_cycle;Signal;HPM_P1;HPM_P2
2024/05/07 00:01:57;;;;;;;1.13;1.02;;;;;;;;;;5491711;26;20324;-84
2024/05/07 00:04:23;;;;;;;1.27;1.15;;;;;;;;;;5491020;26;20375;-84
2024/05/07 00:06:49;;;;;;;1.42;1.20;;;;;;;;;;5524542;26;20716;-84
2024/05/07 00:09:15;;;;;;;1.70;1.50;;;;;;;;;;5524533;26;20312;-84
2024/05/07 00:11:41;;;;;;;1.60;1.50;;;;;;;;;;5524730;26;20323;-84
2024/05/07 00:14:07;;;;;;;4.97;1.37;;;;;;;;;;5492205;26;20456;-84
2024/05/07 00:16:33;;;;;;;2.33;1.42;;;;;;;;;;5492227;26;20307;-82
2024/05/07 00:18:59;;;;;;;2.05;1.30;;;;;;;;;;5524450;26;20901;-82
2024/05/07 00:21:25;;;;;;;1.45;1.20;;;;;;;;;;5487373;26;20327;-81
2024/05/07 00:23:51;;;;;;;2.50;1.57;;;;;;;;;;5507527;26;20355;-81
2024/05/07 00:26:17;;;;;;;1.70;1.60;;;;;;;;;;5491655;26;20327;-81
2024/05/07 00:28:43;;;;;;;1.52;1.42;;;;;;;;;;5524479;26;20346;-82
2024/05/07 00:31:09;;;;;;;1.52;1.42;;;;;;;;;;5491435;26;20324;-82
2024/05/07 00:33:35;;;;;;;2.08;1.60;;;;;;;;;;5524322;26;20662;-81
2024/05/07 00:36:01;;;;;;;1.80;1.70;;;;;;;;;;5524327;26;20382;-81
2024/05/07 00:38:27;;;;;;;1.60;1.50;;;;;;;;;;5524279;26;20832;-82
2024/05/07 00:40:53;;;;;;;1.83;1.73;;;;;;;;;;5491659;26;20495;-81
2024/05/07 00:43:19;;;;;;;1.67;1.38;;;;;;;;;;5491727;26;20320;-81
2024/05/07 00:45:45;;;;;;;2.85;1.77;;;;;;;;;;5491381;26;20342;-82
2024/05/07 00:48:11;;;;;;;1.73;1.63;;;;;;;;;;5523839;26;20673;-81
2024/05/07 00:50:38;;;;;;;1.73;1.63;;;;;;;;;;5523392;26;20331;-82
2024/05/07 00:53:05;;;;;;;2.72;1.90;;;;;;;;;;5491703;26;20340;-81
2024/05/07 00:55:31;;;;;;;3.00;1.75;;;;;;;;;;5523493;26;20868;-81
2024/05/07 00:57:58;;;;;;;1.73;1.63;;;;;;;;;;5523762;26;20387;-81
2024/05/07 01:00:24;;;;;;;1.70;1.60;;;;;;;;;;5517355;26;20403;-81
2024/05/07 01:02:50;;;;;;;1.58;1.48;;;;;;;;;;5523610;26;20320;-81
2024/05/07 01:05:16;;;;;;;2.50;1.45;;;;;;;;;;5523601;26;20788;-81
2024/05/07 01:07:42;;;;;;;1.40;1.30;;;;;;;;;;5523189;26;20320;-81
2024/05/07 01:10:08;;;;;;;2.30;1.33;;;;;;;;;;5523216;26;20367;-82
2024/05/07 01:12:34;;;;;;;1.27;1.15;;;;;;;;;;5490613;26;20694;-81
2024/05/07 01:15:00;;;;;;;1.52;1.27;;;;;;;;;;5491069;26;20323;-82
2024/05/07 01:17:26;;;;;;;1.20;1.10;;;;;;;;;;5525091;26;20312;-82
2024/05/07 01:19:53;;;;;;;1.60;1.13;;;;;;;;;;5526912;26;21047;-82
2024/05/07 01:22:20;;;;;;;1.15;1.05;;;;;;;;;;5509091;26;20326;-82
2024/05/07 01:24:46;;;;;;;1.67;1.35;;;;;;;;;;5488095;26;20353;-82
2024/05/07 01:27:12;;;;;;;2.20;1.00;;;;;;;;;;5509340;26;20312;-82
2024/05/07 01:29:41;;;;;;;1.15;1.05;;;;;;;;;;5527186;26;20344;-82
2024/05/07 01:32:08;;;;;;;1.80;1.13;;;;;;;;;;5527097;26;20363;-82
2024/05/07 01:34:34;;;;;;;1.63;1.02;;;;;;;;;;5526730;26;20351;-82
2024/05/07 01:37:00;;;;;;;1.50;1.13;;;;;;;;;;5493883;26;20556;-81
2024/05/07 01:39:27;;;;;;;2.58;1.30;;;;;;;;;;5526900;26;20320;-82
2024/05/07 01:41:53;;;;;;;2.07;1.40;;;;;;;;;;5526741;26;20495;-82
2024/05/07 01:44:19;;;;;;;1.20;1.10;;;;;;;;;;5493892;26;20315;-82
2024/05/07 01:46:45;;;;;;;2.97;1.40;;;;;;;;;;5526025;26;20424;-82
2024/05/07 01:49:11;;;;;;;1.20;1.02;;;;;;;;;;5493320;26;20368;-82
2024/05/07 01:51:37;;;;;;;0.93;0.93;;;;;;;;;;5526549;26;20327;-82
2024/05/07 01:54:06;;;;;;;0.90;0.90;;;;;;;;;;5526472;26;20316;-81
2024/05/07 01:56:33;;;;;;;1.73;0.90;;;;;;;;;;5526330;26;20670;-81
2024/05/07 01:58:59;;;;;;;1.08;0.93;;;;;;;;;;5526478;26;20323;-82
2024/05/07 02:01:25;;;;;;;0.90;0.90;;;;;;;;;;5526200;26;20364;-82
2024/05/07 02:03:51;;;;;;;1.03;0.87;;;;;;;;;;5525761;26;20320;-81
2024/05/07 02:06:17;;;;;;;1.30;1.10;;;;;;;;;;5482076;26;20391;-81
2024/05/07 02:08:49;;;;;;;2.92;1.27;;;;;;;;;;5512399;26;20824;-82
2024/05/07 02:11:15;;;;;;;1.40;0.90;;;;;;;;;;5493708;26;20346;-82
2024/05/07 02:13:41;;;;;;;1.25;0.90;;;;;;;;;;5526446;26;20319;-82
2024/05/07 02:16:10;;;;;;;0.83;0.73;;;;;;;;;;5526028;26;20449;-81
2024/05/07 02:18:36;;;;;;;0.70;0.70;;;;;;;;;;5526318;26;20657;-82
2024/05/07 02:21:05;;;;;;;2.28;0.88;;;;;;;;;;5526608;26;20392;-82
2024/05/07 02:23:31;;;;;;;1.30;1.20;;;;;;;;;;5472524;26;20327;-81
2024/05/07 02:25:57;;;;;;;1.20;1.10;;;;;;;;;;5526326;26;20721;-82
2024/05/07 02:28:23;;;;;;;2.42;1.20;;;;;;;;;;5525671;26;20356;-81
2024/05/07 02:30:49;;;;;;;1.88;1.42;;;;;;;;;;5526160;26;20357;-82
2024/05/07 02:33:15;;;;;;;2.03;1.30;;;;;;;;;;5525638;26;20323;-81
2024/05/07 02:35:41;;;;;;;1.55;1.35;;;;;;;;;;5525806;26;20854;-81
2024/05/07 02:38:08;;;;;;;1.58;1.38;;;;;;;;;;5493668;26;20328;-81
2024/05/07 02:40:34;;;;;;;1.73;1.50;;;;;;;;;;5525667;26;20324;-82
2024/05/07 02:43:00;;;;;;;1.65;1.33;;;;;;;;;;5493497;26;20835;-82
2024/05/07 02:45:26;;;;;;;1.53;1.43;;;;;;;;;;5493609;26;20331;-82
2024/05/07 02:47:52;;;;;;;2.22;1.20;;;;;;;;;;5493537;26;20809;-81
2024/05/07 02:50:18;;;;;;;1.73;1.20;;;;;;;;;;5493075;26;20331;-81
2024/05/07 02:52:44;;;;;;;1.47;1.03;;;;;;;;;;5525702;26;20350;-81
2024/05/07 02:55:10;;;;;;;1.52;1.05;;;;;;;;;;5525435;26;20315;-81
2024/05/07 02:57:39;;;;;;;2.92;1.17;;;;;;;;;;5525693;26;20432;-82
2024/05/07 03:00:06;;;;;;;1.30;1.20;;;;;;;;;;5526246;26;20516;-81
2024/05/07 03:02:32;;;;;;;1.00;1.00;;;;;;;;;;5492980;26;20363;-81
2024/05/07 03:04:58;;;;;;;1.55;1.30;;;;;;;;;;5493596;26;20356;-81
2024/05/07 03:07:24;;;;;;;1.63;1.50;;;;;;;;;;5525811;26;20352;-82
2024/05/07 03:09:53;;;;;;;2.97;1.60;;;;;;;;;;5521983;26;20327;-84
2024/05/07 03:12:19;;;;;;;2.10;1.90;;;;;;;;;;5525891;26;20829;-84
2024/05/07 03:14:45;;;;;;;2.53;1.83;;;;;;;;;;5526062;26;20324;-84
2024/05/07 03:17:11;;;;;;;1.70;1.60;;;;;;;;;;5525945;26;20390;-84
2024/05/07 03:19:38;;;;;;;2.00;1.75;;;;;;;;;;5525693;26;20335;-84
2024/05/07 03:22:05;;;;;;;1.90;1.70;;;;;;;;;;5479135;26;20915;-84
2024/05/07 03:24:31;;;;;;;1.63;1.52;;;;;;;;;;5519115;26;20824;-84
2024/05/07 03:26:57;;;;;;;4.07;1.75;;;;;;;;;;5526048;26;20383;-84
2024/05/07 03:29:23;;;;;;;1.80;1.70;;;;;;;;;;5525936;26;20804;-84
2024/05/07 03:31:49;;;;;;;1.60;1.50;;;;;;;;;;5525748;26;20324;-83
2024/05/07 03:34:15;;;;;;;2.08;1.67;;;;;;;;;;5525453;26;20315;-84
2024/05/07 03:36:50;;;;;;;1.70;1.42;;;;;;;;;;5525385;26;20881;-84
2024/05/07 03:39:17;;;;;;;1.45;1.35;;;;;;;;;;5524021;26;20351;-84
2024/05/07 03:41:43;;;;;;;1.20;1.20;;;;;;;;;;5524926;26;20327;-84
2024/05/07 03:44:09;;;;;;;1.30;1.20;;;;;;;;;;5499416;26;20421;-84
2024/05/07 03:46:35;;;;;;;2.00;1.10;;;;;;;;;;5525065;26;20320;-84
2024/05/07 03:49:01;;;;;;;1.20;0.85;;;;;;;;;;5524954;26;20880;-84
2024/05/07 03:51:27;;;;;;;1.25;0.90;;;;;;;;;;5492212;26;20332;-84
2024/05/07 03:53:53;;;;;;;1.23;1.00;;;;;;;;;;5492411;26;20328;-84
2024/05/07 03:56:19;;;;;;;0.80;0.80;;;;;;;;;;5524978;26;20320;-84
2024/05/07 03:58:45;;;;;;;1.67;0.95;;;;;;;;;;5492549;26;20654;-84
2024/05/07 04:01:11;;;;;;;1.17;0.80;;;;;;;;;;5492701;26;20387;-84
2024/05/07 04:03:37;;;;;;;1.30;1.00;;;;;;;;;;5525196;26;20371;-83
2024/05/07 04:06:03;;;;;;;2.88;1.17;;;;;;;;;;5524405;26;20327;-85
2024/05/07 04:08:29;;;;;;;1.67;1.58;;;;;;;;;;5524690;26;20331;-84
2024/05/07 04:10:55;;;;;;;1.80;1.50;;;;;;;;;;5525551;26;20384;-84
2024/05/07 04:13:21;;;;;;;1.80;1.52;;;;;;;;;;5525269;26;20323;-84
2024/05/07 04:15:47;;;;;;;1.20;1.00;;;;;;;;;;5491722;26;20872;-84
2024/05/07 04:18:13;;;;;;;1.90;1.10;;;;;;;;;;5523689;26;20361;-83
2024/05/07 04:20:40;;;;;;;1.30;1.20;;;;;;;;;;5479187;26;20391;-83
2024/05/07 04:23:06;;;;;;;1.20;1.20;;;;;;;;;;5510129;26;20344;-83
2024/05/07 04:25:32;;;;;;;1.17;1.17;;;;;;;;;;5513842;25;20923;-83
2024/05/07 04:27:58;;;;;;;1.30;1.20;;;;;;;;;;5512739;26;20315;-83
2024/05/07 04:30:24;;;;;;;1.27;1.17;;;;;;;;;;5481930;26;20421;-83
2024/05/07 04:32:50;;;;;;;1.40;1.30;;;;;;;;;;5510415;26;20323;-84
2024/05/07 04:35:16;;;;;;;2.10;1.20;;;;;;;;;;5524018;26;20816;-83
2024/05/07 04:37:42;;;;;;;1.63;1.52;;;;;;;;;;5492357;26;20347;-84
2024/05/07 04:40:08;;;;;;;2.17;1.98;;;;;;;;;;5524799;25;20343;-83
2024/05/07 04:42:34;;;;;;;2.42;2.22;;;;;;;;;;5525267;26;20332;-83
2024/05/07 04:45:00;;;;;;;2.50;2.30;;;;;;;;;;5491920;26;20379;-83
2024/05/07 04:47:26;;;;;;;2.90;2.40;;;;;;;;;;5524065;26;20320;-83
2024/05/07 04:49:52;;;;;;;2.67;2.40;;;;;;;;;;5486031;26;20757;-83
2024/05/07 04:52:18;;;;;;;2.45;2.25;;;;;;;;;;5524458;26;20431;-84
2024/05/07 04:54:44;;;;;;;2.67;2.35;;;;;;;;;;5492305;26;20328;-83
2024/05/07 04:57:10;;;;;;;2.30;2.15;;;;;;;;;;5515979;26;20720;-83
2024/05/07 04:59:36;;;;;;;1.97;1.80;;;;;;;;;;5521095;26;20355;-83
2024/05/07 05:02:02;;;;;;;1.80;1.70;;;;;;;;;;5523986;26;20857;-83
2024/05/07 05:04:28;;;;;;;1.85;1.60;;;;;;;;;;5491412;26;20449;-83
2024/05/07 05:06:54;;;;;;;1.50;1.40;;;;;;;;;;5488929;26;20719;-83
2024/05/07 05:09:20;;;;;;;1.50;1.40;;;;;;;;;;5493605;26;20332;-84
2024/05/07 05:11:48;;;;;;;1.73;1.50;;;;;;;;;;5526371;26;20420;-83
2024/05/07 05:14:14;;;;;;;1.33;1.23;;;;;;;;;;5524640;26;20406;-84
2024/05/07 05:16:40;;;;;;;1.70;1.40;;;;;;;;;;5513184;26;20783;-80
2024/05/07 05:19:05;;;;;;;2.30;2.20;;;;;;;;;;5509796;26;20315;-82
2024/05/07 05:21:32;;;;;;;1.88;1.58;;;;;;;;;;5501802;26;20315;-82
2024/05/07 05:23:58;;;;;;;2.03;1.45;;;;;;;;;;5470187;26;20314;-82
2024/05/07 05:26:24;;;;;;;1.55;1.33;;;;;;;;;;5517336;26;20324;-82
2024/05/07 05:28:51;;;;;;;1.40;1.30;;;;;;;;;;5524181;26;20331;-82
2024/05/07 05:31:20;;;;;;;2.55;1.45;;;;;;;;;;5523652;26;20344;-82
2024/05/07 05:33:46;;;;;;;1.70;1.27;;;;;;;;;;5525463;26;20316;-82
2024/05/07 05:36:12;;;;;;;1.20;1.17;;;;;;;;;;5493041;26;20366;-82
2024/05/07 05:38:38;;;;;;;1.08;1.08;;;;;;;;;;5493105;26;20316;-82
2024/05/07 05:41:04;;;;;;;1.63;1.47;;;;;;;;;;5507254;26;20330;-82
2024/05/07 05:43:30;;;;;;;2.28;1.55;;;;;;;;;;5525963;26;20406;-82
2024/05/07 05:45:56;;;;;;;1.40;1.30;;;;;;;;;;5525762;26;20730;-82
2024/05/07 05:48:22;;;;;;;2.03;1.70;;;;;;;;;;5510603;26;20439;-82
2024/05/07 05:50:48;;;;;;;1.52;1.38;;;;;;;;;;5498746;26;20323;-82
2024/05/07 05:53:14;;;;;;;2.45;1.70;;;;;;;;;;5527645;26;20312;-82
2024/05/07 05:55:40;;;;;;;2.40;1.70;;;;;;;;;;5499858;26;21077;-83
2024/05/07 05:58:07;;;;;;;1.98;1.63;;;;;;;;;;5527668;26;20320;-82
2024/05/07 06:00:33;;;;;;;1.60;1.50;;;;;;;;;;5515589;26;20327;-82
2024/05/07 06:02:59;;;;;;;1.90;1.80;;;;;;;;;;5493262;26;20356;-82
2024/05/07 06:05:25;;;;;;;1.83;1.52;;;;;;;;;;5527330;26;20319;-82
2024/05/07 06:07:53;;;;;;;1.85;1.75;;;;;;;;;;5528987;26;20315;-82
2024/05/07 06:10:19;;;;;;;1.50;1.40;;;;;;;;;;5528263;26;20484;-82
2024/05/07 06:12:45;;;;;;;1.70;1.60;;;;;;;;;;5526432;26;20422;-81
2024/05/07 06:15:11;;;;;;;3.35;2.08;;;;;;;;;;5526497;26;20705;-82
2024/05/07 06:17:37;;;;;;;3.00;2.30;;;;;;;;;;5523363;26;20419;-82
2024/05/07 06:20:03;;;;;;;1.80;1.70;;;;;;;;;;5508095;26;20331;-82
2024/05/07 06:22:29;;;;;;;2.10;1.90;;;;;;;;;;5511427;26;20384;-82
2024/05/07 06:24:55;;;;;;;2.10;1.90;;;;;;;;;;5526492;26;20350;-82
2024/05/07 06:27:21;;;;;;;2.35;1.98;;;;;;;;;;5526496;26;20421;-82
2024/05/07 06:29:47;;;;;;;2.43;2.20;;;;;;;;;;5526148;26;20474;-82
2024/05/07 06:32:13;;;;;;;2.00;1.90;;;;;;;;;;5518702;26;20343;-82
2024/05/07 06:34:39;;;;;;;2.45;2.00;;;;;;;;;;5518678;26;20324;-82
2024/05/07 06:37:05;;;;;;;3.15;2.70;;;;;;;;;;5526267;26;20657;-82
2024/05/07 06:39:31;;;;;;;2.90;2.70;;;;;;;;;;5526248;26;20335;-82
2024/05/07 06:41:57;;;;;;;2.55;2.35;;;;;;;;;;5525899;26;20372;-82
2024/05/07 06:44:23;;;;;;;2.30;2.20;;;;;;;;;;5526293;26;20801;-82
2024/05/07 06:46:49;;;;;;;1.98;1.88;;;;;;;;;;5525833;26;20335;-82
2024/05/07 06:49:14;;;;;;;3.00;2.03;;;;;;;;;;5525909;26;20427;-82
2024/05/07 06:51:41;;;;;;;2.50;2.10;;;;;;;;;;5526642;26;20832;-82
2024/05/07 06:54:07;;;;;;;2.85;2.20;;;;;;;;;;5526222;26;20320;-82
2024/05/07 06:56:33;;;;;;;2.17;2.08;;;;;;;;;;5525789;26;20320;-82
2024/05/07 06:58:59;;;;;;;2.30;1.90;;;;;;;;;;5526299;26;20368;-82
2024/05/07 07:01:25;;;;;;;2.08;1.95;;;;;;;;;;5525745;26;20312;-82
2024/05/07 07:03:51;;;;;;;2.88;2.25;;;;;;;;;;5520697;26;20324;-82
2024/05/07 07:06:16;;;;;;;3.10;2.80;;;;;;;;;;5525548;26;20343;-82
2024/05/07 07:08:42;;;;;;;3.70;3.40;;;;;;;;;;5525904;26;20352;-82
2024/05/07 07:11:08;;;;;;;3.60;3.33;;;;;;;;;;5525363;26;20327;-82
2024/05/07 07:13:37;;;;;;;3.67;3.00;;;;;;;;;;5525444;26;20839;-82
2024/05/07 07:16:03;;;;;;;3.27;3.00;;;;;;;;;;5524216;26;20486;-82
2024/05/07 07:18:29;;;;;;;2.92;2.72;;;;;;;;;;5525291;26;20360;-82
2024/05/07 07:20:55;;;;;;;3.25;2.95;;;;;;;;;;5526283;26;20348;-82
2024/05/07 07:23:21;;;;;;;3.25;2.63;;;;;;;;;;5504753;26;20852;-82
2024/05/07 07:25:47;;;;;;;2.92;2.75;;;;;;;;;;5525627;26;20323;-82
2024/05/07 07:28:13;;;;;;;3.28;3.08;;;;;;;;;;5525398;26;20435;-82
2024/05/07 07:30:39;;;;;;;3.47;3.25;;;;;;;;;;5528831;26;20828;-82
2024/05/07 07:33:05;;;;;;;3.67;3.40;;;;;;;;;;5531731;26;20375;-82
2024/05/07 07:35:32;;;;;;;3.67;3.38;;;;;;;;;;5533069;26;20335;-82
2024/05/07 07:37:58;;;;;;;3.85;3.53;;;;;;;;;;5530215;26;20375;-82
2024/05/07 07:40:24;;;;;;;4.20;3.80;;;;;;;;;;5528771;26;20816;-82
2024/05/07 07:42:50;;;;;;;4.18;3.78;;;;;;;;;;5529551;26;20369;-82
2024/05/07 07:45:16;;;;;;;4.45;3.70;;;;;;;;;;5529700;26;20320;-82
2024/05/07 07:47:42;;;;;;;3.92;3.63;;;;;;;;;;5527101;26;20364;-82
2024/05/07 07:50:07;;;;;;;3.53;3.22;;;;;;;;;;5531451;26;20312;-82
2024/05/07 07:52:33;;;;;;;3.45;3.20;;;;;;;;;;5530148;26;20316;-82
2024/05/07 07:54:59;;;;;;;3.13;2.83;;;;;;;;;;5528270;26;20344;-82
2024/05/07 07:57:25;;;;;;;3.20;2.90;;;;;;;;;;5530691;26;20316;-82
2024/05/07 07:59:52;;;;;;;3.10;2.80;;;;;;;;;;5530659;26;20365;-82
2024/05/07 08:02:22;;;;;;;3.10;2.90;;;;;;;;;;5531536;26;20793;-82
2024/05/07 08:04:48;;;;;;;3.05;2.85;;;;;;;;;;5531543;26;20312;-82
2024/05/07 08:07:14;;;;;;;2.90;2.55;;;;;;;;;;5530660;26;20319;-82
2024/05/07 08:09:40;;;;;;;2.45;2.30;;;;;;;;;;5529963;26;20828;-82
2024/05/07 08:12:06;;;;;;;2.90;2.70;;;;;;;;;;5529540;26;20416;-82
2024/05/07 08:14:34;;;;;;;2.65;2.45;;;;;;;;;;5527659;26;20884;-82
2024/05/07 08:16:59;;;;;;;3.20;2.78;;;;;;;;;;5527645;26;20410;-82
2024/05/07 08:19:27;;;;;;;3.20;2.90;;;;;;;;;;5527780;26;20323;-82
2024/05/07 08:21:53;;;;;;;4.32;2.83;;;;;;;;;;5527342;26;20320;-82
2024/05/07 08:24:19;;;;;;;2.92;2.72;;;;;;;;;;5526338;26;21216;-82
2024/05/07 08:26:46;;;;;;;3.42;3.10;;;;;;;;;;5525796;26;20646;-82
2024/05/07 08:29:12;;;;;;;3.30;3.10;;;;;;;;;;5528483;26;20316;-82
2024/05/07 08:31:38;;;;;;;4.03;3.72;;;;;;;;;;5527088;26;20312;-82
2024/05/07 08:34:04;;;;;;;4.63;3.33;;;;;;;;;;5526269;26;20368;-82
2024/05/07 08:36:30;;;;;;;3.72;3.42;;;;;;;;;;5525861;26;20320;-82
2024/05/07 08:38:56;;;;;;;3.40;3.13;;;;;;;;;;5528277;26;20353;-82
2024/05/07 08:41:22;;;;;;;7.85;2.70;;;;;;;;;;5524861;26;20319;-82
2024/05/07 08:43:51;;;;;;;3.10;2.60;;;;;;;;;;5525179;26;20327;-82
2024/05/07 08:46:17;;;;;;;2.60;2.40;;;;;;;;;;5524225;26;20311;-82
2024/05/07 08:48:45;;;;;;;2.80;2.60;;;;;;;;;;5524286;26;20352;-82
2024/05/07 08:51:11;;;;;;;2.80;2.60;;;;;;;;;;5524335;26;20316;-82
2024/05/07 08:53:37;;;;;;;2.33;2.13;;;;;;;;;;5524029;26;20355;-82
2024/05/07 08:56:04;;;;;;;2.43;2.23;;;;;;;;;;5523934;26;20393;-82
2024/05/07 08:58:30;;;;;;;2.25;2.05;;;;;;;;;;5523822;26;20320;-82
2024/05/07 09:00:56;;;;;;;3.80;2.50;;;;;;;;;;5517636;26;20311;-82
2024/05/07 09:03:22;;;;;;;2.10;2.00;;;;;;;;;;5524045;26;20442;-82
2024/05/07 09:05:48;;;;;;;2.10;1.92;;;;;;;;;;5523676;26;20348;-82
2024/05/07 09:08:15;;;;;;;2.50;2.30;;;;;;;;;;5523754;26;20316;-82
2024/05/07 09:10:43;;;;;;;2.60;2.40;;;;;;;;;;5523407;26;20410;-82
2024/05/07 09:13:09;;;;;;;3.20;2.90;;;;;;;;;;5524235;26;20432;-82
2024/05/07 09:15:35;;;;;;;4.00;2.70;;;;;;;;;;5523514;26;20360;-82
2024/05/07 09:18:02;;;;;;;3.75;2.60;;;;;;;;;;5523280;26;20957;-82
2024/05/07 09:20:28;;;;;;;3.95;2.90;;;;;;;;;;5523142;26;20793;-82
2024/05/07 09:22:55;;;;;;;2.85;2.50;;;;;;;;;;5502312;26;20316;-82
2024/05/07 09:25:21;;;;;;;2.28;2.10;;;;;;;;;;5523707;26;20371;-82
2024/05/07 09:27:47;;;;;;;2.65;2.20;;;;;;;;;;5523288;26;20319;-82
2024/05/07 09:30:13;;;;;;;2.55;2.35;;;;;;;;;;5522767;26;20324;-82
2024/05/07 09:32:43;;;;;;;2.50;2.30;;;;;;;;;;5523488;26;20428;-82
2024/05/07 09:35:12;;;;;;;2.50;2.30;;;;;;;;;;5522424;26;20356;-82
2024/05/07 09:37:41;;;;;;;2.50;2.15;;;;;;;;;;5523653;26;20383;-82
2024/05/07 09:40:11;;;;;;;3.22;2.70;;;;;;;;;;5527054;26;20383;-82
2024/05/07 09:42:56;;;;;;;3.40;3.10;;;;;;;;;;5526893;26;20328;-82
2024/05/07 09:45:22;;;;;;;3.55;3.25;;;;;;;;;;5527241;26;20324;-82
2024/05/07 09:47:49;;;;;;;3.43;3.17;;;;;;;;;;5526850;26;20453;-82
2024/05/07 09:50:16;;;;;;;3.50;3.20;;;;;;;;;;5526520;26;20836;-82
2024/05/07 09:52:43;;;;;;;2.90;2.70;;;;;;;;;;5530318;26;20388;-82
2024/05/07 09:55:09;;;;;;;2.67;2.47;;;;;;;;;;5529562;26;20312;-82
2024/05/07 09:57:36;;;;;;;2.83;2.63;;;;;;;;;;5528818;26;20941;-82
2024/05/07 10:00:03;;;;;;;2.50;2.30;;;;;;;;;;5529649;26;20382;-82
2024/05/07 10:02:29;;;;;;;2.80;2.60;;;;;;;;;;5529730;26;20340;-82
2024/05/07 10:04:55;;;;;;;2.55;2.35;;;;;;;;;;5529567;26;20352;-82
2024/05/07 10:07:31;;;;;;;2.22;2.08;;;;;;;;;;5530010;26;20316;-82
2024/05/07 10:09:57;;;;;;;2.00;1.80;;;;;;;;;;5532579;26;20320;-82
2024/05/07 10:12:33;;;;;;;2.15;2.00;;;;;;;;;;5530956;26;20324;-82
2024/05/07 10:14:59;;;;;;;2.40;2.20;;;;;;;;;;5531602;26;20320;-82
2024/05/07 10:17:25;;;;;;;2.53;2.20;;;;;;;;;;5534003;26;20372;-82
2024/05/07 10:19:57;;;;;;;2.33;2.13;;;;;;;;;;5532790;26;20432;-82
2024/05/07 10:22:26;;;;;;;2.63;2.08;;;;;;;;;;5513249;26;20330;-82
2024/05/07 10:25:07;;;;;;;2.35;2.15;;;;;;;;;;5530375;26;20331;-82
2024/05/07 10:27:36;;;;;;;4.28;2.38;;;;;;;;;;5531612;26;20372;-82
2024/05/07 10:30:03;;;;;;;2.65;1.90;;;;;;;;;;5530323;26;20868;-82
2024/05/07 10:32:29;;;;;;;2.50;2.05;;;;;;;;;;5531337;26;20319;-82
2024/05/07 10:34:56;;;;;;;3.22;2.70;;;;;;;;;;5530003;26;20356;-82
2024/05/07 10:37:22;;;;;;;3.25;2.80;;;;;;;;;;5505097;26;20332;-82
2024/05/07 10:39:48;;;;;;;3.33;3.03;;;;;;;;;;5532283;26;20323;-82
2024/05/07 10:42:15;;;;;;;3.50;3.20;;;;;;;;;;5532170;26;20486;-81
2024/05/07 10:44:41;;;;;;;3.92;3.63;;;;;;;;;;5530166;26;20316;-81
2024/05/07 10:47:08;;;;;;;4.60;4.15;;;;;;;;;;5525713;25;20792;-83
2024/05/07 10:49:34;;;;;;;3.97;3.60;;;;;;;;;;5528474;25;20328;-83
2024/05/07 10:52:06;;;;;;;3.67;3.35;;;;;;;;;;5556488;25;20355;-83
2024/05/07 10:54:32;;;;;;;2.90;2.70;;;;;;;;;;5506930;26;20327;-83
2024/05/07 10:56:58;;;;;;;3.60;2.50;;;;;;;;;;5528393;25;20353;-83
2024/05/07 10:59:24;;;;;;;2.30;2.10;;;;;;;;;;5522249;25;20716;-83
2024/05/07 11:01:51;;;;;;;2.30;2.20;;;;;;;;;;5523676;25;20404;-83
2024/05/07 11:04:19;;;;;;;3.20;2.90;;;;;;;;;;5526543;26;20356;-84
2024/05/07 11:06:45;;;;;;;3.85;2.92;;;;;;;;;;5526352;26;20312;-84
2024/05/07 11:09:21;;;;;;;3.40;3.20;;;;;;;;;;5519626;25;20397;-84
2024/05/07 11:11:47;;;;;;;4.10;2.97;;;;;;;;;;5523076;26;20324;-83
2024/05/07 11:14:13;;;;;;;2.63;2.42;;;;;;;;;;5525851;26;20324;-84
2024/05/07 11:16:39;;;;;;;3.25;2.60;;;;;;;;;;5525210;26;20323;-84
2024/05/07 11:19:05;;;;;;;2.80;2.60;;;;;;;;;;5526584;26;20362;-84
2024/05/07 11:21:33;;;;;;;3.08;2.63;;;;;;;;;;5525741;26;20707;-84
2024/05/07 11:24:03;;;;;;;3.40;3.10;;;;;;;;;;5525703;26;20308;-84
2024/05/07 11:26:29;;;;;;;3.45;3.10;;;;;;;;;;5526168;26;20690;-84
2024/05/07 11:28:55;;;;;;;3.28;2.97;;;;;;;;;;5526547;26;20319;-84
2024/05/07 11:31:22;;;;;;;3.42;3.10;;;;;;;;;;5525739;26;20328;-84
2024/05/07 11:33:48;;;;;;;3.47;3.00;;;;;;;;;;5526738;26;20396;-84
2024/05/07 11:36:14;;;;;;;3.08;2.88;;;;;;;;;;5529239;26;20359;-84
2024/05/07 11:38:40;;;;;;;3.10;2.70;;;;;;;;;;5529929;26;20641;-84
2024/05/07 11:41:07;;;;;;;3.22;2.92;;;;;;;;;;5526745;26;20352;-84
2024/05/07 11:43:33;;;;;;;3.28;3.08;;;;;;;;;;5499662;26;20697;-84
2024/05/07 11:45:59;;;;;;;4.88;3.92;;;;;;;;;;5531513;26;20320;-84
2024/05/07 11:48:25;;;;;;;4.30;3.90;;;;;;;;;;5532170;26;20364;-84
2024/05/07 11:50:55;;;;;;;4.35;3.20;;;;;;;;;;5530042;26;20323;-84
2024/05/07 11:53:21;;;;;;;3.47;3.10;;;;;;;;;;5529899;26;20903;-84
2024/05/07 11:55:47;;;;;;;3.67;3.33;;;;;;;;;;5530711;26;20426;-84
2024/05/07 11:58:13;;;;;;;3.75;3.45;;;;;;;;;;5527382;26;20331;-84
2024/05/07 12:00:39;;;;;;;3.80;3.20;;;;;;;;;;5525114;26;20367;-84
2024/05/07 12:03:05;;;;;;;3.25;2.95;;;;;;;;;;5528828;26;20343;-84
2024/05/07 12:05:31;;;;;;;4.05;3.20;;;;;;;;;;5534234;26;20372;-84
2024/05/07 12:07:58;;;;;;;3.45;3.15;;;;;;;;;;5533550;26;20307;-84
2024/05/07 12:10:24;;;;;;;3.38;3.03;;;;;;;;;;5534134;26;20328;-85
2024/05/07 12:12:50;;;;;;;3.60;3.30;;;;;;;;;;5532231;26;20364;-84
2024/05/07 12:15:16;;;;;;;3.80;3.47;;;;;;;;;;5527837;26;20316;-84
2024/05/07 12:17:42;;;;;;;3.67;3.38;;;;;;;;;;5528169;26;20393;-85
2024/05/07 12:20:08;;;;;;;3.92;3.55;;;;;;;;;;5527726;26;20350;-85
2024/05/07 12:28:04;;;;;;;3.60;3.30;;;;;;;;;;5527719;26;20934;-85
2024/05/07 12:30:30;;;;;;;3.20;2.97;;;;;;;;;;5527611;26;20327;-85
2024/05/07 12:32:56;;;;;;;3.35;3.03;;;;;;;;;;5527124;26;20470;-85
2024/05/07 12:35:24;;;;;;;3.70;3.40;;;;;;;;;;5526997;26;20328;-85
2024/05/07 12:37:51;;;;;;;3.50;3.20;;;;;;;;;;5527536;26;20692;-85
2024/05/07 12:40:17;;;;;;;3.28;2.97;;;;;;;;;;5527040;26;20316;-85
2024/05/07 12:42:43;;;;;;;3.10;2.80;;;;;;;;;;5528521;26;20327;-85
2024/05/07 12:45:09;;;;;;;5.80;3.33;;;;;;;;;;5529065;26;20316;-85
2024/05/07 12:47:35;;;;;;;3.22;2.92;;;;;;;;;;5531203;26;20319;-85
2024/05/07 12:50:01;;;;;;;5.22;3.40;;;;;;;;;;5531301;26;20379;-85
2024/05/07 12:52:27;;;;;;;2.88;2.50;;;;;;;;;;5530984;26;20324;-85
2024/05/07 12:54:53;;;;;;;4.05;3.47;;;;;;;;;;5529709;26;20405;-85
2024/05/07 12:57:19;;;;;;;2.97;2.70;;;;;;;;;;5529487;26;20435;-85
2024/05/07 12:59:45;;;;;;;3.00;2.70;;;;;;;;;;5529990;26;20360;-85
2024/05/07 13:02:10;;;;;;;3.23;2.90;;;;;;;;;;5528820;26;20323;-85
2024/05/07 13:04:36;;;;;;;3.63;3.33;;;;;;;;;;5525269;26;21170;-85
2024/05/07 13:07:03;;;;;;;4.20;3.30;;;;;;;;;;5529335;26;20323;-85
2024/05/07 13:09:29;;;;;;;2.60;2.38;;;;;;;;;;5528956;26;20331;-85
2024/05/07 13:11:55;;;;;;;3.00;2.80;;;;;;;;;;5529983;26;20320;-85
2024/05/07 13:14:21;;;;;;;3.90;3.40;;;;;;;;;;5532742;26;20371;-85
2024/05/07 13:16:47;;;;;;;3.83;3.53;;;;;;;;;;5532996;26;20393;-85
2024/05/07 13:19:13;;;;;;;3.60;3.30;;;;;;;;;;5532356;26;20315;-85
2024/05/07 13:21:39;;;;;;;2.78;2.58;;;;;;;;;;5526531;26;20323;-85
2024/05/07 13:24:05;;;;;;;4.10;3.58;;;;;;;;;;5519899;26;20948;-85
2024/05/07 13:26:31;;;;;;;3.72;3.40;;;;;;;;;;5532932;26;20363;-84
2024/05/07 13:28:57;;;;;;;3.47;3.17;;;;;;;;;;5533004;26;20650;-84
2024/05/07 13:31:23;;;;;;;3.30;3.00;;;;;;;;;;5532742;26;20376;-84
2024/05/07 13:33:50;;;;;;;3.53;3.20;;;;;;;;;;5533374;26;20347;-84
2024/05/07 13:36:16;;;;;;;3.75;3.45;;;;;;;;;;5533201;26;20352;-85
2024/05/07 13:38:42;;;;;;;2.95;2.72;;;;;;;;;;5531555;26;20332;-85
2024/05/07 13:41:08;;;;;;;3.03;2.70;;;;;;;;;;5496659;26;20345;-85
2024/05/07 13:43:37;;;;;;;2.88;2.60;;;;;;;;;;5529634;26;20355;-85
2024/05/07 13:46:03;;;;;;;2.63;2.42;;;;;;;;;;5529705;26;20327;-85
2024/05/07 13:48:30;;;;;;;3.22;2.20;;;;;;;;;;5530108;26;20683;-85
2024/05/07 13:50:55;;;;;;;3.35;2.42;;;;;;;;;;5529258;26;20315;-85
2024/05/07 13:53:21;;;;;;;2.60;2.40;;;;;;;;;;5531219;26;20812;-85
2024/05/07 13:55:48;;;;;;;2.80;2.60;;;;;;;;;;5527369;26;20368;-84
2024/05/07 13:58:14;;;;;;;2.60;2.40;;;;;;;;;;5527600;26;20331;-85
2024/05/07 14:00:40;;;;;;;2.80;2.53;;;;;;;;;;5526633;26;20388;-84
2024/05/07 14:03:06;;;;;;;2.38;2.10;;;;;;;;;;5526629;26;20350;-84
2024/05/07 14:05:32;;;;;;;3.33;1.98;;;;;;;;;;5526791;26;20421;-85
2024/05/07 14:07:58;;;;;;;2.17;2.00;;;;;;;;;;5526823;26;20852;-85
2024/05/07 14:10:24;;;;;;;2.20;2.00;;;;;;;;;;5527148;26;20666;-84
2024/05/07 14:12:50;;;;;;;2.60;2.00;;;;;;;;;;5527280;26;20372;-84
2024/05/07 14:15:16;;;;;;;2.00;1.67;;;;;;;;;;5527580;26;20312;-84
2024/05/07 14:17:43;;;;;;;1.92;1.83;;;;;;;;;;5527548;26;20730;-85
2024/05/07 14:20:09;;;;;;;2.28;2.10;;;;;;;;;;5526631;26;20363;-85
2024/05/07 14:22:35;;;;;;;2.22;1.80;;;;;;;;;;5505641;26;20416;-85
2024/05/07 14:25:05;;;;;;;2.00;1.83;;;;;;;;;;5526035;26;20355;-85
2024/05/07 14:27:31;;;;;;;1.70;1.60;;;;;;;;;;5526565;26;20745;-85
2024/05/07 14:29:58;;;;;;;2.00;1.75;;;;;;;;;;5526243;26;20380;-85
2024/05/07 14:32:24;;;;;;;1.67;1.58;;;;;;;;;;5526418;26;21218;-85
2024/05/07 14:34:50;;;;;;;1.70;1.50;;;;;;;;;;5526839;26;20328;-85
2024/05/07 14:37:16;;;;;;;3.33;1.70;;;;;;;;;;5530744;26;20327;-85
2024/05/07 14:39:43;;;;;;;2.33;1.50;;;;;;;;;;5530749;26;20393;-85
2024/05/07 14:42:09;;;;;;;3.30;1.60;;;;;;;;;;5530536;26;20426;-85
2024/05/07 14:44:35;;;;;;;1.90;1.60;;;;;;;;;;5532294;26;20895;-85